Mapleton, ND (58059)

8:22 AM CST on February 25, 2017 (GMT -0600)
Maple Point | | Change Station
Active Advisory: Flood Warning

Elev 892 ft 46.89 °N, 97.05 °W | Updated 24 seconds ago

Overcast
Overcast
20.2 °F
Feels Like 14 °F
N
4.0
Wind Variable Wind from West

Today
High -- | Low -- °F
--% Chance of Precip.
Yesterday
High -- | Low -- °F
Precip. -- in
Pressure 29.99 in
Visibility 10.0 miles
Clouds Scattered Clouds 5000 ft
Scattered Clouds 6500 ft
Overcast 8500 ft
Windchill 14 °F
Dew Point 18 °F
Humidity 91%
Rainfall 0.00 in
Snow Depth Not available.
7:14 AM 6:08 PM
Waning Crescent, 1% visible
METAR KFAR 251353Z 19010KT 10SM SCT050 SCT065 OVC085 M07/M11 A2994 RMK AO2 SLP154 T10671106
Pressure 29.99 in
Visibility 10.0 miles
Clouds Scattered Clouds 5000 ft
Scattered Clouds 6500 ft
Overcast 8500 ft
Windchill 14 °F
Dew Point 18 °F
Humidity 91%
Rainfall 0.00 in
Snow Depth Not available.
7:14 AM 6:08 PM
Waning Crescent, 1% visible
METAR KFAR 251353Z 19010KT 10SM SCT050 SCT065 OVC085 M07/M11 A2994 RMK AO2 SLP154 T10671106

Get Your Daily Forecast Email!

Thanks for signing up!

Be on the lookout for a verification email in your inbox.

You'll start receiving the daily forecast at 8 AM.

×

10-Day Weather Forecast

Almanac

Astronomy

Feb. 25, 2017 Rise Set
Actual Time
Civil Twilight
Nautical Twilight
Astronomical Twilight
Moon
Length of Visible Light
Length of Day
Tomorrow will be .
, % of the Moon is Illuminated

Today's Extremes

State Highs State Lows

Community

WunderPhotos

Upload Photos

1,962,540 photos uploaded!

WunderBlog® & News

Nearby

Air Quality

  Air Quality AQ Index Pollutant
Not available.

Snow Depth

Station Depth Elevation

Earthquake Activity

City Distance Mag. Time & Date
Minimum magnitude displayed is 2.5.

Coastal Water Temperatures

Place Temperature

Stations

Nearby Weather Stations

Station Location Temp. Windchill Dew Point Humidity Wind Precip. Elev Updated Type
                   

Watches & Warnings

Flood Warning
Issued: 8:50 PM CST Feb. 24, 2017 – National Weather Service

The Flood Warning continues for...
* ... Fargo... on the Red River.
* Until Friday March 03... or until the warning is cancelled.
* At 8:15 PM Friday the stage was 22.0 feet.
* Minor flooding is occurring and during the next 7 days... minor
flooding is forecast.
* Minor flood stage is 18.0 feet.
* Forecast... the river will continue to fall to below flood stage by
Wednesday evening.
* Impact statement(s) - at 22.0 feet, Fargo... North Broadway bridge is
closed.


Daily 7pm CDT/6pm CST forecast stage in feet:

date Sat sun Mon Tue Wed Thu Fri
(month/day) 02/25 02/26 02/27 02/28 03/01 03/02 03/03
Fargo 21.7 20.6 19.5 18.6 18.0 17.5 17.4
lat... Lon 4715 9673 4724 9683 4724 9694 4676 9689 4677 9671